createdAt,value
2022-08-29T00:02:12.569Z,49.17
2022-08-29T00:04:40.179Z,49.15
2022-08-29T00:07:07.697Z,49.14
2022-08-29T00:09:35.302Z,49.14
2022-08-29T00:12:03.025Z,49.32
2022-08-29T00:14:32.279Z,49.31
2022-08-29T00:17:01.009Z,49.40
2022-08-29T00:19:29.016Z,49.50
2022-08-29T00:21:56.497Z,49.44
2022-08-29T00:24:24.025Z,50.11
2022-08-29T00:26:51.560Z,49.62
2022-08-29T00:29:19.023Z,49.10
2022-08-29T00:31:47.936Z,49.21
2022-08-29T00:34:15.493Z,49.46
2022-08-29T00:36:42.990Z,49.71
2022-08-29T00:39:16.746Z,49.95
2022-08-29T00:41:47.561Z,49.86
2022-08-29T00:44:15.166Z,49.88
2022-08-29T00:46:51.371Z,49.97
2022-08-29T00:49:26.365Z,49.92
2022-08-29T00:51:54.755Z,50.45
2022-08-29T00:54:23.484Z,50.55
2022-08-29T00:56:52.048Z,50.39
2022-08-29T00:59:21.673Z,50.57
2022-08-29T01:01:50.621Z,50.36
2022-08-29T01:04:23.646Z,50.82
2022-08-29T01:06:52.618Z,50.68
2022-08-29T01:09:20.874Z,50.84
2022-08-29T01:12:06.207Z,50.65
2022-08-29T01:14:38.272Z,50.64
2022-08-29T01:17:09.320Z,50.87
2022-08-29T01:19:42.752Z,51.13
2022-08-29T01:22:17.760Z,51.37
2022-08-29T01:24:50.617Z,50.95
2022-08-29T01:27:20.425Z,51.21
2022-08-29T01:29:48.394Z,51.19
2022-08-29T01:32:16.126Z,51.22
2022-08-29T01:34:44.017Z,51.17
2022-08-29T01:37:13.959Z,51.44
2022-08-29T01:39:43.071Z,51.51
2022-08-29T01:42:13.700Z,51.43
2022-08-29T01:44:41.913Z,51.50
2022-08-29T01:47:11.314Z,51.53
2022-08-29T01:49:40.954Z,51.77
2022-08-29T01:52:09.045Z,52.47
2022-08-29T01:54:36.690Z,51.71
2022-08-29T01:57:07.609Z,52.11
2022-08-29T01:59:38.853Z,51.88
2022-08-29T02:02:09.281Z,52.11
2022-08-29T02:04:36.925Z,52.34
2022-08-29T02:07:07.314Z,52.07
2022-08-29T02:09:38.129Z,52.28
2022-08-29T02:12:07.223Z,52.09
2022-08-29T02:14:35.430Z,52.01
2022-08-29T02:17:06.025Z,52.36
2022-08-29T02:19:33.790Z,52.59
2022-08-29T02:22:02.577Z,52.61
2022-08-29T02:24:30.614Z,52.66
2022-08-29T02:26:59.075Z,52.68
2022-08-29T02:29:37.490Z,52.62
2022-08-29T02:32:08.793Z,52.76
2022-08-29T02:34:37.081Z,52.61
2022-08-29T02:37:05.962Z,52.84
2022-08-29T02:39:33.892Z,52.70
2022-08-29T02:42:01.540Z,53.00
2022-08-29T02:44:29.187Z,52.99
2022-08-29T02:46:56.729Z,53.53
2022-08-29T02:49:25.614Z,53.48
2022-08-29T02:51:53.170Z,53.71
2022-08-29T02:54:20.659Z,53.94
2022-08-29T02:56:48.146Z,53.82
2022-08-29T02:59:15.799Z,53.59
2022-08-29T03:01:43.374Z,53.88
2022-08-29T03:04:10.887Z,53.55
2022-08-29T03:06:39.720Z,54.19
2022-08-29T03:09:07.269Z,54.39
2022-08-29T03:11:34.848Z,53.87
2022-08-29T03:14:02.372Z,53.58
2022-08-29T03:16:29.977Z,54.00
2022-08-29T03:18:57.788Z,53.98
2022-08-29T03:21:27.302Z,54.10
2022-08-29T03:23:57.117Z,54.08
2022-08-29T03:26:26.395Z,54.30
2022-08-29T03:28:54.143Z,54.10
2022-08-29T03:31:22.035Z,54.00
2022-08-29T03:33:49.666Z,54.45
2022-08-29T03:36:17.356Z,54.69
2022-08-29T03:38:46.313Z,54.27
2022-08-29T03:41:20.814Z,54.72
2022-08-29T03:43:48.310Z,54.71
2022-08-29T03:46:15.891Z,55.25
2022-08-29T03:48:43.410Z,54.85
2022-08-29T03:51:10.931Z,54.86
2022-08-29T03:53:38.424Z,54.70
2022-08-29T03:56:07.058Z,55.09
2022-08-29T03:58:39.113Z,55.09
2022-08-29T04:01:06.962Z,55.13
2022-08-29T04:03:34.573Z,55.58
2022-08-29T04:06:02.798Z,56.15
2022-08-29T04:08:30.301Z,55.47
2022-08-29T04:10:57.793Z,55.76
2022-08-29T04:13:26.039Z,55.81
2022-08-29T04:15:54.905Z,55.59
2022-08-29T04:18:22.661Z,55.75
2022-08-29T04:20:50.729Z,55.65
2022-08-29T04:23:18.221Z,56.29
2022-08-29T04:25:46.079Z,56.12
2022-08-29T04:28:14.998Z,56.06
2022-08-29T04:30:51.322Z,56.39
2022-08-29T04:33:22.351Z,56.72
2022-08-29T04:35:50.472Z,56.79
2022-08-29T04:38:17.999Z,57.15
2022-08-29T04:40:45.578Z,57.18
2022-08-29T04:43:13.079Z,56.95
2022-08-29T04:45:41.425Z,56.92
2022-08-29T04:48:10.691Z,56.97
2022-08-29T04:50:39.993Z,57.23
2022-08-29T04:53:07.676Z,57.26
2022-08-29T04:55:35.161Z,56.98
2022-08-29T04:58:04.066Z,57.49
2022-08-29T05:00:31.594Z,57.42
2022-08-29T05:03:00.087Z,57.52
2022-08-29T05:05:28.541Z,57.69
2022-08-29T05:07:57.366Z,57.62
2022-08-29T05:10:26.175Z,57.27
2022-08-29T05:12:53.716Z,57.62
2022-08-29T05:15:21.514Z,57.63
2022-08-29T05:17:49.115Z,57.75
2022-08-29T05:20:16.878Z,57.39
2022-08-29T05:22:45.106Z,57.27
2022-08-29T05:25:18.279Z,57.36
2022-08-29T05:27:46.492Z,57.66
2022-08-29T05:30:14.172Z,57.86
2022-08-29T05:32:41.666Z,57.88
2022-08-29T05:35:09.816Z,57.57
2022-08-29T05:37:37.672Z,58.09
2022-08-29T05:40:06.363Z,57.60
2022-08-29T05:42:35.238Z,57.70
2022-08-29T05:45:04.774Z,57.78
2022-08-29T05:47:32.752Z,57.40
2022-08-29T05:50:00.805Z,57.49
2022-08-29T05:52:29.463Z,57.38
2022-08-29T05:54:56.992Z,57.41
2022-08-29T05:57:24.627Z,57.45
2022-08-29T05:59:54.633Z,56.99
2022-08-29T06:02:23.390Z,56.89
2022-08-29T06:04:51.034Z,56.71
2022-08-29T06:07:18.982Z,56.97
2022-08-29T06:09:46.754Z,56.94
2022-08-29T06:12:15.982Z,56.53
2022-08-29T06:14:50.187Z,56.90
2022-08-29T06:17:20.050Z,56.65
2022-08-29T06:19:51.159Z,56.43
2022-08-29T06:22:19.755Z,56.57
2022-08-29T06:24:47.513Z,56.76
2022-08-29T06:27:16.299Z,56.68
2022-08-29T06:29:44.065Z,56.06
2022-08-29T06:32:11.723Z,56.08
2022-08-29T06:34:40.594Z,55.80
2022-08-29T06:37:08.095Z,56.05
2022-08-29T06:39:35.799Z,55.85
2022-08-29T06:42:03.367Z,56.31
2022-08-29T06:44:31.318Z,56.04
2022-08-29T06:46:59.057Z,56.26
2022-08-29T06:49:27.570Z,56.32
2022-08-29T06:51:58.262Z,56.13
2022-08-29T06:54:28.537Z,56.03
2022-08-29T06:56:56.972Z,55.84
2022-08-29T06:59:24.595Z,55.65
2022-08-29T07:01:52.331Z,55.13
2022-08-29T07:04:20.654Z,55.08
2022-08-29T07:06:48.790Z,55.25
2022-08-29T07:09:17.722Z,55.20
2022-08-29T07:11:45.321Z,55.23
2022-08-29T07:14:13.666Z,55.09
2022-08-29T07:16:42.081Z,54.78
2022-08-29T07:19:10.987Z,54.63
2022-08-29T07:21:39.712Z,54.29
2022-08-29T07:24:08.248Z,53.99
2022-08-29T07:26:38.865Z,53.47
2022-08-29T07:29:09.584Z,53.30
2022-08-29T07:31:38.945Z,52.77
2022-08-29T07:34:06.703Z,52.58
2022-08-29T07:36:34.902Z,51.87
2022-08-29T07:39:02.853Z,51.93
2022-08-29T07:41:30.321Z,51.98
2022-08-29T07:43:59.631Z,51.87
2022-08-29T07:46:27.505Z,51.74
2022-08-29T07:48:55.091Z,51.41
2022-08-29T07:51:24.324Z,51.38
2022-08-29T07:53:52.456Z,51.21
2022-08-29T07:56:22.871Z,51.30
2022-08-29T07:58:52.571Z,50.42
2022-08-29T08:01:22.058Z,50.67
2022-08-29T08:03:50.219Z,50.38
2022-08-29T08:06:19.317Z,50.29
2022-08-29T08:08:46.835Z,50.44
2022-08-29T08:11:14.850Z,50.35
2022-08-29T08:13:42.538Z,49.96
2022-08-29T08:16:12.549Z,49.89
2022-08-29T08:18:42.422Z,49.34
2022-08-29T08:21:10.610Z,49.03
2022-08-29T08:23:38.863Z,49.44
2022-08-29T08:26:06.843Z,48.58
2022-08-29T08:28:34.531Z,48.38
2022-08-29T08:31:06.183Z,48.20
2022-08-29T08:33:35.370Z,48.40
2022-08-29T08:36:04.620Z,48.67
2022-08-29T08:38:32.265Z,48.17
2022-08-29T08:41:03.510Z,48.03
2022-08-29T08:43:39.235Z,47.68
2022-08-29T08:46:08.210Z,47.87
2022-08-29T08:48:38.680Z,47.74
2022-08-29T08:51:11.474Z,46.97
2022-08-29T08:53:40.995Z,47.26
2022-08-29T08:56:13.707Z,47.22
2022-08-29T08:58:46.431Z,46.20
2022-08-29T09:01:21.830Z,46.07
2022-08-29T09:04:08.684Z,46.31
2022-08-29T09:06:50.525Z,46.01
2022-08-29T09:09:25.872Z,45.58
2022-08-29T09:12:01.653Z,45.63
2022-08-29T09:14:41.715Z,45.57
2022-08-29T09:17:13.897Z,45.98
2022-08-29T09:19:41.393Z,45.50
2022-08-29T09:22:15.265Z,45.49
2022-08-29T09:24:48.891Z,45.02
2022-08-29T09:27:19.278Z,44.64
2022-08-29T09:29:48.516Z,44.82
2022-08-29T09:32:22.187Z,45.24
2022-08-29T09:35:08.084Z,44.67
2022-08-29T09:37:38.069Z,44.64
2022-08-29T09:40:11.770Z,44.42
2022-08-29T09:42:41.948Z,43.82
2022-08-29T09:45:19.819Z,43.53
2022-08-29T09:47:49.749Z,43.62
2022-08-29T09:50:24.502Z,43.82
2022-08-29T09:52:55.361Z,42.73
2022-08-29T09:55:29.097Z,43.27
2022-08-29T09:57:59.139Z,43.23
2022-08-29T10:00:29.839Z,42.91
2022-08-29T10:02:58.726Z,42.28
2022-08-29T10:05:35.791Z,42.45
2022-08-29T10:08:06.454Z,41.73
2022-08-29T10:10:36.173Z,41.20
2022-08-29T10:13:08.264Z,40.62
2022-08-29T10:15:50.426Z,41.12
2022-08-29T10:18:24.054Z,41.27
2022-08-29T10:20:57.242Z,41.23
2022-08-29T10:23:34.397Z,40.16
2022-08-29T10:26:06.555Z,40.54
2022-08-29T10:28:41.488Z,40.02
2022-08-29T10:31:12.735Z,40.56
2022-08-29T10:33:55.632Z,39.75
2022-08-29T10:36:27.392Z,39.72
2022-08-29T10:39:02.212Z,39.40
2022-08-29T10:41:34.218Z,39.80
2022-08-29T10:44:11.240Z,39.79
2022-08-29T10:46:52.305Z,39.22
2022-08-29T10:49:28.480Z,39.40
2022-08-29T10:51:59.941Z,39.50
2022-08-29T10:54:35.689Z,39.32
2022-08-29T10:57:04.876Z,38.83
2022-08-29T10:59:42.580Z,38.31
2022-08-29T11:02:17.576Z,38.74
2022-08-29T11:04:50.546Z,38.18
2022-08-29T11:07:23.141Z,38.28
2022-08-29T11:09:55.653Z,38.26
2022-08-29T11:12:27.090Z,38.54
2022-08-29T11:14:59.135Z,38.19
2022-08-29T11:17:30.668Z,37.75
2022-08-29T11:20:01.935Z,37.70
2022-08-29T11:22:34.327Z,37.58
2022-08-29T11:25:08.566Z,36.95
2022-08-29T11:27:42.520Z,37.73
2022-08-29T11:30:14.114Z,37.88
2022-08-29T11:32:47.889Z,37.69
2022-08-29T11:35:20.506Z,36.71
2022-08-29T11:38:20.436Z,37.30
2022-08-29T11:43:51.398Z,36.33
2022-08-29T11:46:33.605Z,36.85
2022-08-29T11:49:37.144Z,36.42
2022-08-29T11:52:26.851Z,36.61
2022-08-29T11:55:25.888Z,36.22
2022-08-29T11:58:03.257Z,36.35
2022-08-29T12:00:47.958Z,35.75
2022-08-29T12:03:52.790Z,35.41
2022-08-29T12:06:26.704Z,35.19
2022-08-29T12:09:01.720Z,35.34
2022-08-29T12:12:10.329Z,35.11
2022-08-29T12:14:40.821Z,34.93
2022-08-29T12:17:10.179Z,34.82
2022-08-29T12:19:55.209Z,34.54
2022-08-29T12:22:48.865Z,34.47
2022-08-29T12:25:45.635Z,34.07
2022-08-29T12:28:54.705Z,34.62
2022-08-29T12:31:30.584Z,34.04
2022-08-29T12:34:17.068Z,34.17
2022-08-29T12:36:57.924Z,34.45
2022-08-29T12:39:36.105Z,34.35
2022-08-29T12:42:13.493Z,34.30
2022-08-29T12:44:44.605Z,33.68
2022-08-29T12:47:15.421Z,33.53
2022-08-29T12:49:48.411Z,33.77
2022-08-29T12:52:25.116Z,33.65
2022-08-29T12:54:56.321Z,33.32
2022-08-29T12:57:28.751Z,33.63
2022-08-29T12:59:57.185Z,33.86
2022-08-29T13:02:29.654Z,33.57
2022-08-29T13:04:57.843Z,32.96
2022-08-29T13:07:27.743Z,33.24
2022-08-29T13:09:56.823Z,33.39
2022-08-29T13:12:26.359Z,33.97
2022-08-29T13:14:57.458Z,32.88
2022-08-29T13:17:28.745Z,33.01
2022-08-29T13:20:33.527Z,32.90
2022-08-29T13:24:31.535Z,33.26
2022-08-29T13:32:30.555Z,33.14
2022-08-29T13:35:00.596Z,32.71
2022-08-29T13:39:10.084Z,32.65
2022-08-29T13:41:52.891Z,32.72
2022-08-29T13:48:58.650Z,32.25
2022-08-29T13:53:24.091Z,32.36
2022-08-29T14:03:05.848Z,32.23
2022-08-29T14:09:36.690Z,32.21
2022-08-29T14:12:39.745Z,32.29
2022-08-29T14:16:25.530Z,32.43
2022-08-29T14:23:31.548Z,31.81
2022-08-29T14:26:10.989Z,31.69
2022-08-29T14:33:55.100Z,31.37
2022-08-29T14:37:20.720Z,31.22
2022-08-29T14:41:47.907Z,31.98
2022-08-29T14:46:32.168Z,31.13
2022-08-29T14:48:59.741Z,31.46
2022-08-29T14:51:28.685Z,31.01
2022-08-29T14:53:56.424Z,31.42
2022-08-29T14:56:46.979Z,31.77
2022-08-29T14:59:14.912Z,31.11
2022-08-29T15:01:42.776Z,31.27
2022-08-29T15:04:11.076Z,30.88
2022-08-29T15:06:40.958Z,31.13
2022-08-29T15:09:08.518Z,30.98
2022-08-29T15:11:36.023Z,31.79
2022-08-29T15:14:12.821Z,30.87
2022-08-29T15:16:52.399Z,30.98
2022-08-29T15:20:18.144Z,31.10
2022-08-29T15:23:15.564Z,31.13
2022-08-29T15:26:04.172Z,30.91
2022-08-29T15:28:57.537Z,30.50
2022-08-29T15:32:01.530Z,30.55
2022-08-29T15:34:56.629Z,30.38
2022-08-29T15:38:00.786Z,30.31
2022-08-29T15:41:20.085Z,30.50
2022-08-29T15:44:16.250Z,30.33
2022-08-29T15:47:03.626Z,30.18
2022-08-29T15:50:02.216Z,30.39
2022-08-29T15:53:03.177Z,30.30
2022-08-29T15:55:44.551Z,30.52
2022-08-29T15:58:50.549Z,30.11
2022-08-29T16:05:38.957Z,29.79
2022-08-29T16:08:39.167Z,30.16
2022-08-29T16:14:46.654Z,30.41
2022-08-29T16:16:01.872Z,29.93
2022-08-29T16:18:46.819Z,29.86
2022-08-29T16:22:08.203Z,30.02
2022-08-29T16:25:46.597Z,30.09
2022-08-29T16:49:08.925Z,30.42
2022-08-29T16:51:36.470Z,30.76
2022-08-29T16:54:04.077Z,30.47
2022-08-29T16:56:32.759Z,30.78
2022-08-29T16:59:01.485Z,31.02
2022-08-29T17:01:32.465Z,30.76
2022-08-29T17:04:01.450Z,30.80
2022-08-29T17:06:29.395Z,30.66
2022-08-29T17:08:56.206Z,31.19
2022-08-29T17:11:22.725Z,30.66
2022-08-29T17:13:49.220Z,30.79
2022-08-29T17:16:15.899Z,30.97
2022-08-29T17:18:44.990Z,31.04
2022-08-29T17:21:12.767Z,30.87
2022-08-29T17:23:41.331Z,31.08
2022-08-29T17:26:12.450Z,30.99
2022-08-29T17:28:41.324Z,30.57
2022-08-29T17:31:09.539Z,31.31
2022-08-29T17:33:37.235Z,31.17
2022-08-29T17:36:07.878Z,31.04
2022-08-29T17:38:35.384Z,31.26
2022-08-29T17:41:05.252Z,31.54
2022-08-29T17:43:43.405Z,31.02
2022-08-29T17:46:11.373Z,31.66
2022-08-29T17:48:38.910Z,31.22
2022-08-29T17:51:09.757Z,31.57
2022-08-29T17:53:46.583Z,31.58
2022-08-29T17:56:22.324Z,31.46
2022-08-29T17:59:09.265Z,31.95
2022-08-29T18:01:39.614Z,32.24
2022-08-29T18:04:10.853Z,31.99
2022-08-29T18:06:41.127Z,32.36
2022-08-29T18:09:12.036Z,32.71
2022-08-29T18:11:42.888Z,32.34
2022-08-29T18:14:13.978Z,32.66
2022-08-29T18:16:55.194Z,32.38
2022-08-29T18:19:25.023Z,32.49
2022-08-29T18:22:10.295Z,32.99
2022-08-29T18:24:54.583Z,33.15
2022-08-29T18:27:26.304Z,32.63
2022-08-29T18:29:55.072Z,32.77
2022-08-29T18:32:37.183Z,33.04
2022-08-29T18:35:06.239Z,33.61
2022-08-29T18:37:42.428Z,33.66
2022-08-29T18:40:16.059Z,33.63
2022-08-29T18:42:44.112Z,33.85
2022-08-29T18:45:12.913Z,34.15
2022-08-29T18:47:40.410Z,34.35
2022-08-29T18:50:28.064Z,34.13
2022-08-29T18:52:57.465Z,34.12
2022-08-29T18:55:28.201Z,34.01
2022-08-29T18:58:06.081Z,34.11
2022-08-29T19:00:48.642Z,34.41
2022-08-29T19:03:22.423Z,34.42
2022-08-29T19:06:25.173Z,33.95
2022-08-29T19:09:25.968Z,34.51
2022-08-29T19:13:02.736Z,34.53
2022-08-29T19:15:34.030Z,34.74
2022-08-29T19:18:48.975Z,34.44
2022-08-29T19:21:42.198Z,34.56
2022-08-29T19:24:41.883Z,34.79
2022-08-29T19:27:43.571Z,34.81
2022-08-29T19:30:18.982Z,34.84
2022-08-29T19:32:58.246Z,34.93
2022-08-29T19:35:41.516Z,35.18
2022-08-29T19:38:12.240Z,35.19
2022-08-29T19:40:44.825Z,35.46
2022-08-29T19:43:28.467Z,35.28
2022-08-29T19:46:18.216Z,35.29
2022-08-29T19:49:33.010Z,35.88
2022-08-29T19:52:19.528Z,36.23
2022-08-29T19:54:48.812Z,35.72
2022-08-29T19:57:23.962Z,35.81
2022-08-29T20:00:13.932Z,36.00
2022-08-29T20:05:45.482Z,36.37
2022-08-29T20:08:47.491Z,36.56
2022-08-29T20:11:25.189Z,36.87
2022-08-29T20:14:20.134Z,37.09
2022-08-29T20:17:30.373Z,37.09
2022-08-29T20:38:35.585Z,38.42
2022-08-29T20:41:15.490Z,38.32
2022-08-29T20:44:17.267Z,38.59
2022-08-29T20:47:05.370Z,38.70
2022-08-29T20:53:06.649Z,38.82
2022-08-29T20:56:05.700Z,38.91
2022-08-29T20:59:15.429Z,39.48
2022-08-29T21:02:30.519Z,39.48
2022-08-29T21:06:22.751Z,39.61
2022-08-29T21:09:13.387Z,39.82
2022-08-29T21:13:08.842Z,40.00
2022-08-29T21:19:58.807Z,40.28
2022-08-29T21:23:23.221Z,40.28
2022-08-29T21:25:58.653Z,40.35
2022-08-29T21:28:34.207Z,40.19
2022-08-29T21:31:31.440Z,40.67
2022-08-29T21:34:18.039Z,40.66
2022-08-29T21:40:46.790Z,41.08
2022-08-29T21:47:42.898Z,41.00
2022-08-29T21:57:58.613Z,41.30
2022-08-29T22:01:46.474Z,41.51
2022-08-29T22:08:23.093Z,41.83
2022-08-29T22:12:01.944Z,42.03
2022-08-29T22:15:31.887Z,41.67
2022-08-29T22:33:35.574Z,42.19
2022-08-29T22:43:34.248Z,42.63
2022-08-29T22:46:12.550Z,42.72
2022-08-29T22:49:42.197Z,42.80
2022-08-29T22:52:48.558Z,42.79
2022-08-29T22:55:58.113Z,43.71
2022-08-29T23:06:22.705Z,42.80
2022-08-29T23:16:26.931Z,43.71
2022-08-29T23:23:04.316Z,43.14
2022-08-29T23:29:49.705Z,43.83
2022-08-29T23:39:29.271Z,43.75
2022-08-29T23:42:21.245Z,43.84
2022-08-29T23:46:48.475Z,43.81
2022-08-29T23:48:00.154Z,44.38
2022-08-29T23:50:27.645Z,44.20
2022-08-29T23:52:56.455Z,44.52
2022-08-29T23:55:23.958Z,44.75
2022-08-29T23:57:52.934Z,44.72
